2MeteoStar Phoenix Sky Harbor International Airport FORECAST
Forecast For: Phoenix, Arizona
Clear
 
Currently: Phoenix Sky Harbor International Airport 17:51 GMT
Weather:Clear Humidity:9%
Temperature:39 ° C Wind:SSE 11 kph
Dew Point:2 ° C Pressure:1007 mb
Feels Like:36 ° C Visibility:16 km
Print Legend
24 Hour Weather Trace
Regional Observations
Daily Climate Plot
Monthly Climate Plot

Regional Radar Image
National Radar Image
Regional Satellite Image
National Satellite Image
Short Range Forecast Trace
Long Range Forecast Trace
NWS Forecast Discussion
16 Day Forecast
Radar For: Phoenix,AZ 06/22/2018 18:49 GMT
CLICK FOR LOOP




METAR:KPHX 221751Z 16006KT 10SM CLR 39/02 A2979 RMK AO2 SLP065 T03890017 10389 20278 58007 =
TAF:

TAFPHX
TAF
KPHX 221720Z 2218/2324 15007KT P6SM SKC
FM221900 26008KT P6SM SKC
TEMPO 2222/2302 27012G21KT
FM231100 10006KT P6SM SKC
FM231800 25010KT P6SM SKC =

NWS Forecast for:
Greater Phoenix Area


Visit the MeteoStar Home Page